高雄國際航空站 - ATIS

METAR RCKH 252100Z 04003KT 010V070 6000 FEW014 SCT035 BKN070 25/25 Q1009 TEMPO 5000 BR RMK A2981=

站台狀態:Online
最後更新:2019-05-26 05:45:01